createdAt,value
2022-11-29T00:58:30.099Z,0.83
2022-11-29T01:01:12.978Z,0.80
2022-11-29T01:31:26.042Z,0.67
2022-11-29T01:47:18.749Z,0.60
2022-11-29T01:57:01.860Z,0.60
2022-11-29T01:59:38.824Z,0.58
2022-11-29T02:02:19.351Z,0.58
2022-11-29T02:04:52.530Z,0.59
2022-11-29T02:07:21.830Z,0.57
2022-11-29T02:09:51.402Z,0.58
2022-11-29T02:12:36.307Z,0.59
2022-11-29T02:15:19.977Z,0.61
2022-11-29T02:18:12.638Z,0.60
2022-11-29T02:21:16.011Z,0.59
2022-11-29T02:24:20.378Z,0.58
2022-11-29T02:27:24.910Z,0.58
2022-11-29T02:30:50.140Z,0.58
2022-11-29T02:37:33.520Z,0.56
2022-11-29T02:40:58.562Z,0.57
2022-11-29T02:44:41.029Z,0.57
2022-11-29T02:48:01.379Z,0.57
2022-11-29T02:51:10.210Z,0.58
2022-11-29T03:41:19.418Z,0.60
2022-11-29T03:44:00.739Z,0.57
2022-11-29T03:47:08.307Z,0.58
2022-11-29T03:49:49.681Z,0.59
2022-11-29T03:52:42.540Z,0.59
2022-11-29T03:55:33.058Z,0.60
2022-11-29T03:58:44.585Z,0.60
2022-11-29T04:01:33.091Z,0.60
2022-11-29T04:04:52.193Z,0.61
2022-11-29T04:07:34.186Z,0.61
2022-11-29T04:10:37.582Z,0.59
2022-11-29T04:13:26.039Z,0.58
2022-11-29T04:16:11.762Z,0.59
2022-11-29T04:18:59.767Z,0.59
2022-11-29T04:21:45.001Z,0.59
2022-11-29T04:24:50.499Z,0.60
2022-11-29T04:27:43.189Z,0.63
2022-11-29T04:30:27.440Z,0.66
2022-11-29T04:33:27.136Z,0.64
2022-11-29T04:36:26.179Z,0.62
2022-11-29T04:39:23.887Z,0.64
2022-11-29T04:42:26.165Z,0.63
2022-11-29T04:45:23.885Z,0.64
2022-11-29T04:48:38.455Z,0.65
2022-11-29T04:51:52.199Z,0.66
2022-11-29T04:54:46.008Z,0.64
2022-11-29T04:57:44.530Z,0.62
2022-11-29T05:03:53.935Z,0.63
2022-11-29T05:07:02.599Z,0.65
2022-11-29T05:09:48.941Z,0.64
2022-11-29T05:12:47.018Z,0.64
2022-11-29T05:15:45.702Z,0.63
2022-11-29T05:19:02.752Z,0.61
2022-11-29T05:22:35.679Z,0.63
2022-11-29T05:25:43.719Z,0.63
2022-11-29T05:28:24.953Z,0.61
2022-11-29T05:41:27.347Z,0.61
2022-11-29T05:55:04.717Z,0.62
2022-11-29T06:18:06.981Z,0.59
2022-11-29T06:20:41.879Z,0.59
2022-11-29T06:23:43.724Z,0.59
2022-11-29T06:26:55.390Z,0.60
2022-11-29T06:29:49.103Z,0.60
2022-11-29T06:39:02.774Z,0.54
2022-11-29T06:41:44.563Z,0.52
2022-11-29T06:45:09.249Z,0.52
2022-11-29T06:47:47.182Z,0.51
2022-11-29T06:50:41.028Z,0.50
2022-11-29T06:54:13.175Z,0.51
2022-11-29T06:56:57.303Z,0.52
2022-11-29T07:00:16.732Z,0.52
2022-11-29T07:03:16.686Z,0.50
2022-11-29T07:05:46.846Z,0.51
2022-11-29T07:08:39.320Z,0.50
2022-11-29T07:11:18.540Z,0.48
2022-11-29T07:13:49.799Z,0.46
2022-11-29T07:16:42.542Z,0.46
2022-11-29T07:19:17.208Z,0.48
2022-11-29T07:22:16.200Z,0.50
2022-11-29T07:25:05.592Z,0.52
2022-11-29T07:27:52.107Z,0.54
2022-11-29T07:30:24.170Z,0.55
2022-11-29T07:33:11.169Z,0.53
2022-11-29T07:36:18.692Z,0.54
2022-11-29T07:39:04.507Z,0.53
2022-11-29T07:41:57.213Z,0.52
2022-11-29T07:44:47.865Z,0.53
2022-11-29T07:47:42.190Z,0.54
2022-11-29T07:50:18.761Z,0.55
2022-11-29T07:52:56.427Z,0.53
2022-11-29T07:56:18.468Z,0.51
2022-11-29T07:59:17.671Z,0.49
2022-11-29T08:01:52.659Z,0.48
2022-11-29T08:04:30.449Z,0.48
2022-11-29T08:07:37.379Z,0.48
2022-11-29T08:10:40.229Z,0.48
2022-11-29T08:13:26.728Z,0.50
2022-11-29T08:19:34.750Z,0.48
2022-11-29T09:16:34.444Z,0.76
2022-11-29T09:19:32.841Z,0.72
2022-11-29T09:26:02.090Z,0.79
2022-11-29T09:29:09.879Z,0.76
2022-11-29T09:39:56.141Z,0.79
2022-11-29T09:43:28.479Z,0.78
2022-11-29T09:50:16.954Z,0.76
2022-11-29T09:53:32.464Z,0.72
2022-11-29T09:56:43.277Z,0.72
2022-11-29T10:12:55.875Z,0.77
2022-11-29T10:15:42.793Z,0.75
2022-11-29T10:18:30.931Z,0.75
2022-11-29T10:21:23.348Z,0.78
2022-11-29T10:24:30.385Z,0.80
2022-11-29T10:27:46.187Z,0.76
2022-11-29T10:31:17.639Z,0.75
2022-11-29T10:34:56.142Z,0.78
2022-11-29T10:38:34.999Z,0.78
2022-11-29T10:41:33.670Z,0.76
2022-11-29T10:44:16.867Z,0.75
2022-11-29T10:47:10.645Z,0.75
2022-11-29T10:49:44.027Z,0.74
2022-11-29T10:52:34.625Z,0.74
2022-11-29T10:55:19.746Z,0.73
2022-11-29T10:58:24.714Z,0.74
2022-11-29T11:01:52.443Z,0.73
2022-11-29T11:04:48.604Z,0.78
2022-11-29T11:07:47.191Z,0.79
2022-11-29T11:14:01.707Z,0.83
2022-11-29T11:16:48.157Z,0.85
2022-11-29T11:19:34.740Z,0.83
2022-11-29T11:22:26.445Z,0.84
2022-11-29T11:25:27.276Z,0.85
2022-11-29T11:28:26.314Z,0.88
2022-11-29T11:31:10.073Z,0.89
2022-11-29T11:37:54.452Z,0.83
2022-11-29T11:47:44.353Z,0.80
2022-11-29T11:51:04.178Z,0.79
2022-11-29T11:54:22.723Z,0.78
2022-11-29T11:57:17.417Z,0.75
2022-11-29T12:03:57.695Z,0.72
2022-11-29T12:10:13.225Z,0.66
2022-11-29T12:12:52.332Z,0.62
2022-11-29T12:15:44.052Z,0.59
2022-11-29T12:18:29.191Z,0.63
2022-11-29T12:45:17.074Z,0.72
2022-11-29T12:48:38.644Z,0.72
2022-11-29T12:55:14.932Z,0.65
2022-11-29T12:59:01.222Z,0.64
2022-11-29T13:02:02.287Z,0.57
2022-11-29T13:08:51.165Z,0.52
2022-11-29T13:12:03.497Z,0.51
2022-11-29T13:16:00.482Z,0.52
2022-11-29T13:25:23.102Z,0.56
2022-11-29T13:28:09.802Z,0.55
2022-11-29T13:31:06.143Z,0.52
2022-11-29T13:34:19.630Z,0.51
2022-11-29T13:37:29.513Z,0.53
2022-11-29T13:40:47.747Z,0.52
2022-11-29T13:44:15.181Z,0.51
2022-11-29T13:47:21.914Z,0.50
2022-11-29T13:53:51.982Z,0.42
2022-11-29T14:03:36.376Z,0.40
2022-11-29T14:07:24.685Z,0.40
2022-11-29T14:11:27.717Z,0.40
2022-11-29T14:14:47.882Z,0.42
2022-11-29T14:17:35.090Z,0.42
2022-11-29T14:20:32.696Z,0.41
2022-11-29T14:23:46.613Z,0.42
2022-11-29T14:26:30.090Z,0.42
2022-11-29T14:29:50.940Z,0.44
2022-11-29T14:32:58.389Z,0.47
2022-11-29T14:36:13.611Z,0.48
2022-11-29T14:40:04.995Z,0.48
2022-11-29T14:43:25.290Z,0.51
2022-11-29T14:52:52.672Z,0.52
2022-11-29T14:55:25.961Z,0.54
2022-11-29T14:58:15.015Z,0.54
2022-11-29T15:00:49.527Z,0.53
2022-11-29T15:03:33.606Z,0.54
2022-11-29T15:06:04.454Z,0.55
2022-11-29T15:09:17.875Z,0.54
2022-11-29T15:12:00.035Z,0.55
2022-11-29T15:15:06.458Z,0.55
2022-11-29T15:18:07.366Z,0.53
2022-11-29T15:21:01.560Z,0.52
2022-11-29T15:24:01.198Z,0.55
2022-11-29T15:26:35.087Z,0.54
2022-11-29T15:29:17.471Z,0.54
2022-11-29T15:31:59.208Z,0.54
2022-11-29T15:34:46.919Z,0.53
2022-11-29T15:37:42.602Z,0.52
2022-11-29T15:40:21.608Z,0.55
2022-11-29T15:43:09.749Z,0.56
2022-11-29T15:49:27.522Z,0.56
2022-11-29T15:52:25.720Z,0.57
2022-11-29T15:55:05.635Z,0.60
2022-11-29T15:57:51.644Z,0.59
2022-11-29T16:00:43.083Z,0.59
2022-11-29T16:03:48.720Z,0.58
2022-11-29T16:06:35.314Z,0.56
2022-11-29T16:09:21.933Z,0.56
2022-11-29T16:12:05.032Z,0.58
2022-11-29T16:24:25.201Z,0.58
2022-11-29T16:27:21.071Z,0.58
2022-11-29T16:39:55.419Z,0.59
2022-11-29T16:42:42.520Z,0.57
2022-11-29T16:49:04.933Z,0.59
2022-11-29T16:52:03.391Z,0.59
2022-11-29T16:55:30.679Z,0.58
2022-11-29T16:58:06.156Z,0.57
2022-11-29T17:00:52.161Z,0.57
2022-11-29T17:07:30.116Z,0.60
2022-11-29T17:10:47.379Z,0.61
2022-11-29T17:23:44.203Z,0.61
2022-11-29T17:26:21.750Z,0.60
2022-11-29T17:28:59.728Z,0.60
2022-11-29T17:32:19.091Z,0.61
2022-11-29T17:35:47.335Z,0.60
2022-11-29T17:39:55.448Z,0.57
2022-11-29T17:46:40.923Z,0.61
2022-11-29T17:50:22.770Z,0.62
2022-11-29T17:52:55.608Z,0.61
2022-11-29T18:15:20.292Z,0.63
2022-11-29T18:18:16.311Z,0.62
2022-11-29T18:20:49.479Z,0.63
2022-11-29T18:23:20.244Z,0.65
2022-11-29T19:34:58.231Z,0.65
2022-11-29T19:37:38.626Z,0.66
2022-11-29T19:40:45.641Z,0.66
2022-11-29T19:43:23.332Z,0.64
2022-11-29T19:59:01.210Z,0.63
2022-11-29T20:01:46.876Z,0.63
2022-11-29T20:04:25.048Z,0.64
2022-11-29T20:07:08.320Z,0.62
2022-11-29T20:10:43.801Z,0.64
2022-11-29T20:13:38.481Z,0.64
2022-11-29T20:17:02.233Z,0.65
2022-11-29T20:20:02.451Z,0.66
2022-11-29T20:22:39.560Z,0.64
2022-11-29T20:25:18.438Z,0.65
2022-11-29T20:28:47.755Z,0.67
2022-11-29T20:31:30.199Z,0.67
2022-11-29T20:34:22.210Z,0.65
2022-11-29T20:37:30.779Z,0.65
2022-11-29T20:40:42.690Z,0.65
2022-11-29T20:47:49.970Z,0.63
2022-11-29T20:50:40.509Z,0.63
2022-11-29T21:34:25.164Z,0.36
2022-11-29T21:40:20.467Z,0.38
2022-11-29T21:43:05.529Z,0.36
2022-11-29T21:45:54.564Z,0.36
2022-11-29T21:49:00.942Z,0.38
2022-11-29T21:51:51.332Z,0.39
2022-11-29T21:54:43.193Z,0.41
2022-11-29T22:00:37.593Z,0.40
2022-11-29T22:03:17.815Z,0.42
2022-11-29T22:13:05.371Z,0.41
2022-11-29T22:18:53.582Z,0.43
2022-11-29T22:21:25.980Z,0.42
2022-11-29T22:23:57.200Z,0.41
2022-11-29T22:26:31.943Z,0.42
2022-11-29T22:29:08.528Z,0.42
2022-11-29T22:31:37.257Z,0.42
2022-11-29T22:34:06.369Z,0.42
2022-11-29T22:37:00.990Z,0.41
2022-11-29T22:39:35.321Z,0.41
2022-11-29T22:42:11.623Z,0.43
2022-11-29T22:44:44.380Z,0.42
2022-11-29T22:47:12.730Z,0.42
2022-11-29T22:49:44.333Z,0.39
2022-11-29T22:52:14.584Z,0.39
2022-11-29T22:54:46.856Z,0.41
2022-11-29T22:57:18.264Z,0.40
2022-11-29T22:59:46.193Z,0.37
2022-11-29T23:02:18.022Z,0.35
2022-11-29T23:04:47.342Z,0.36
2022-11-29T23:07:16.486Z,0.38
2022-11-29T23:09:47.442Z,0.37
2022-11-29T23:12:18.096Z,0.35
2022-11-29T23:14:55.782Z,0.33
2022-11-29T23:17:27.404Z,0.33
2022-11-29T23:23:10.900Z,0.30
2022-11-29T23:25:49.470Z,0.27
2022-11-29T23:28:26.192Z,0.26
2022-11-29T23:31:23.296Z,0.26
2022-11-29T23:34:03.841Z,0.27
2022-11-29T23:36:52.410Z,0.28
2022-11-29T23:39:40.179Z,0.28
2022-11-29T23:42:20.502Z,0.26
2022-11-29T23:44:50.035Z,0.26
2022-11-29T23:47:29.341Z,0.26
2022-11-29T23:50:25.061Z,0.25
2022-11-29T23:52:59.390Z,0.24
2022-11-29T23:55:41.468Z,0.24
